Terminal Aerodrome Forecast
Issued by NWS Greer, SC

Home | Current Version | Previous Version | Text Only | Print | Product List | Glossary On
Versions: 1 2 3 4 5 6 7 8 9 10 11 12 13
414
FTUS42 KGSP 201735
TAFGSP
TAF
KGSP 201735Z 2018/2118 11005KT P6SM SKC
     FM210600 VRB03KT P6SM SKC
     FM211200 06006KT P6SM SKC=

USA.gov is the U.S. government's official web portal to all federal, state and local government web resources and services.